Página principal
METAR-TAF:

METAR-TAF

Aeroportos :

Aeroporto Internacional Heydar Aliyev

Baku, Azerbaijão

latitude: 40-27N, longitude: 050-04E, altura: -6 m

Observação actual do tempo

O boletim foi feito há 12 minutos, às 03:00 UTC
Vento 17 kt de norte
Temperatura 8°C
Humidade 71%
Pressão 1019 hPa
Visibilidade 10 km ou mais
Encobertoa uma altura de 2400 ft

METAR: UBBB 190300Z 36017KT 9999 OVC024 08/03 Q1019 R88/D NOSIG

Hora: 07:12 (03:12 UTC)

Previsão

O boletim foi feito há 4 horas e 2 minutos, às 23:10 UTC
Previsão válida de 19 às 00 UTC a 19 às 24 UTC
Vento 20 kt de norte
Visibilidade 10 km ou mais
Nuvens fragmentadasa uma altura de 1700 ft
Temporariamente
de 19 às 02 UTC a 19 às 15 UTC
Vento 12 kt de nor-nordeste
Temporariamente
de 19 às 15 UTC a 19 às 24 UTC
Nuvens dispersasa uma altura de 700 ft
Encobertoa uma altura de 2000 ft
chuva fraca

TAF: UBBB 182310Z 1900/1924 35020KT 9999 BKN017 TX11/1910Z TN07/1903Z TEMPO 1902/1915 02012KT TEMPO 1915/1924 -RA SCT007 OVC020

Observações e previsões do tempo de mais de 4000 aeroportos (mensagens METAR e TAF).

As estações disponíveis são os pontos amarelos e vermelhos sobre o mapa.

Mova o rato sobre o mapa para ver o nome da estação.

Depois clique no ponto para visualizar as observações e previsões meteorológicas.

Para alterar o mapa : clique nos botões verdes com uma cruz preta para aumentar o zoom; no botão verde com uma pitada de zoom; ou nas setas verdes para mapas adjacentes.


METAR-TAF: